createdAt,value
2022-09-24T00:01:33.003Z,68.62
2022-09-24T00:04:11.684Z,69.08
2022-09-24T00:06:43.139Z,69.45
2022-09-24T00:09:12.704Z,69.52
2022-09-24T00:11:47.890Z,69.14
2022-09-24T00:14:18.550Z,69.72
2022-09-24T00:16:55.829Z,68.85
2022-09-24T00:19:28.159Z,68.64
2022-09-24T00:21:56.700Z,68.31
2022-09-24T00:24:46.744Z,69.76
2022-09-24T00:27:18.030Z,69.54
2022-09-24T00:29:51.742Z,69.62
2022-09-24T00:32:27.980Z,69.28
2022-09-24T00:34:56.745Z,69.80
2022-09-24T00:37:24.833Z,69.81
2022-09-24T00:39:53.016Z,70.41
2022-09-24T00:42:37.517Z,70.38
2022-09-24T00:45:15.747Z,70.06
2022-09-24T00:47:46.278Z,69.68
2022-09-24T00:50:22.642Z,70.35
2022-09-24T00:53:03.860Z,70.68
2022-09-24T00:55:34.218Z,70.91
2022-09-24T00:58:05.984Z,71.25
2022-09-24T01:00:38.936Z,72.46
2022-09-24T01:03:10.497Z,72.93
2022-09-24T01:05:40.630Z,73.17
2022-09-24T01:08:07.724Z,73.39
2022-09-24T01:11:04.875Z,74.25
2022-09-24T01:14:20.343Z,75.30
2022-09-24T01:17:04.933Z,75.11
2022-09-24T01:19:51.030Z,75.51
2022-09-24T01:22:37.869Z,75.70
2022-09-24T01:25:32.754Z,75.13
2022-09-24T01:28:20.037Z,76.11
2022-09-24T01:30:51.073Z,76.01
2022-09-24T01:33:22.221Z,75.81
2022-09-24T01:35:58.335Z,75.84
2022-09-24T01:38:34.634Z,76.00
2022-09-24T01:41:03.946Z,76.69
2022-09-24T01:43:32.041Z,76.74
2022-09-24T01:46:06.441Z,76.70
2022-09-24T01:48:37.398Z,77.69
2022-09-24T01:51:22.165Z,77.50
2022-09-24T01:54:05.010Z,77.66
2022-09-24T01:56:46.714Z,77.46
2022-09-24T01:59:25.655Z,77.57
2022-09-24T02:02:03.290Z,78.02
2022-09-24T02:04:41.952Z,77.71
2022-09-24T02:07:19.327Z,77.42
2022-09-24T02:09:52.055Z,78.42
2022-09-24T02:12:37.898Z,78.78
2022-09-24T02:15:30.215Z,79.19
2022-09-24T02:18:04.875Z,79.40
2022-09-24T02:20:33.990Z,79.33
2022-09-24T02:23:01.263Z,79.34
2022-09-24T02:25:43.305Z,80.29
2022-09-24T02:28:10.421Z,80.19
2022-09-24T02:30:52.086Z,80.62
2022-09-24T02:33:42.537Z,80.58
2022-09-24T02:36:11.493Z,80.82
2022-09-24T02:38:38.570Z,80.44
2022-09-24T02:41:09.470Z,80.67
2022-09-24T02:43:36.653Z,80.46
2022-09-24T02:46:06.178Z,80.48
2022-09-24T02:48:33.120Z,80.87
2022-09-24T02:51:04.080Z,80.45
2022-09-24T02:53:33.947Z,79.36
2022-09-24T02:56:03.999Z,78.87
2022-09-24T02:58:31.505Z,78.18
2022-09-24T03:01:03.381Z,78.42
2022-09-24T03:03:30.528Z,79.22
2022-09-24T03:06:01.879Z,79.70
2022-09-24T03:08:31.278Z,79.79
2022-09-24T03:10:58.229Z,80.25
2022-09-24T03:13:27.755Z,79.87
2022-09-24T03:15:57.427Z,81.15
2022-09-24T03:18:24.284Z,82.32
2022-09-24T03:21:08.645Z,82.83
2022-09-24T03:23:36.511Z,84.56
2022-09-24T03:26:06.189Z,84.27
2022-09-24T03:28:33.195Z,84.36
2022-09-24T03:31:00.718Z,84.55
2022-09-24T03:33:43.195Z,84.16
2022-09-24T03:36:25.909Z,83.47
2022-09-24T03:38:56.510Z,82.96
2022-09-24T03:41:28.413Z,82.72
2022-09-24T03:43:58.441Z,83.67
2022-09-24T03:46:28.376Z,84.13
2022-09-24T03:49:00.446Z,83.55
2022-09-24T03:51:27.419Z,83.93
2022-09-24T03:53:54.312Z,83.96
2022-09-24T03:56:24.192Z,84.00
2022-09-24T03:58:51.092Z,85.32
2022-09-24T04:01:20.608Z,85.35
2022-09-24T04:03:51.620Z,85.98
2022-09-24T04:06:23.452Z,85.69
2022-09-24T04:08:57.051Z,85.24
2022-09-24T04:11:25.061Z,84.79
2022-09-24T04:13:52.975Z,84.48
2022-09-24T04:16:20.126Z,84.67
2022-09-24T04:18:48.073Z,84.71
2022-09-24T04:21:14.923Z,84.12
2022-09-24T04:23:44.249Z,84.91
2022-09-24T04:26:11.443Z,85.17
2022-09-24T04:28:43.142Z,86.44
2022-09-24T04:31:12.291Z,87.09
2022-09-24T04:33:39.254Z,86.78
2022-09-24T04:36:06.085Z,85.76
2022-09-24T04:38:33.038Z,86.68
2022-09-24T04:41:10.298Z,86.59
2022-09-24T04:43:37.280Z,87.91
2022-09-24T04:46:05.842Z,87.61
2022-09-24T04:48:32.780Z,88.03
2022-09-24T04:50:59.670Z,87.94
2022-09-24T04:53:27.164Z,87.50
2022-09-24T04:55:56.580Z,87.96
2022-09-24T04:58:23.632Z,87.63
2022-09-24T05:00:53.342Z,87.39
2022-09-24T05:03:27.781Z,87.16
2022-09-24T05:05:55.585Z,88.12
2022-09-24T05:08:23.026Z,88.35
2022-09-24T05:10:49.948Z,88.60
2022-09-24T05:13:23.472Z,88.03
2022-09-24T05:15:50.765Z,87.72
2022-09-24T05:18:22.389Z,87.09
2022-09-24T05:20:49.613Z,88.08
2022-09-24T05:23:18.864Z,87.52
2022-09-24T05:26:04.625Z,86.38
2022-09-24T05:28:35.414Z,86.14
2022-09-24T05:31:05.977Z,86.16
2022-09-24T05:33:36.193Z,86.98
2022-09-24T05:36:04.640Z,86.97
2022-09-24T05:38:32.923Z,87.70
2022-09-24T05:41:00.089Z,86.52
2022-09-24T05:43:31.891Z,86.55
2022-09-24T05:45:59.271Z,87.22
2022-09-24T05:48:28.824Z,87.24
2022-09-24T05:50:56.380Z,87.10
2022-09-24T05:53:24.060Z,87.56
2022-09-24T05:55:53.528Z,86.48
2022-09-24T05:58:23.583Z,86.00
2022-09-24T06:00:51.254Z,86.03
2022-09-24T06:03:20.792Z,86.06
2022-09-24T06:05:50.807Z,85.12
2022-09-24T06:08:22.103Z,83.92
2022-09-24T06:11:02.571Z,84.54
2022-09-24T06:13:32.330Z,84.09
2022-09-24T06:16:09.877Z,84.13
2022-09-24T06:18:40.073Z,84.42
2022-09-24T06:21:15.857Z,86.07
2022-09-24T06:23:45.434Z,85.97
2022-09-24T06:26:16.998Z,85.97
2022-09-24T06:28:43.989Z,85.10
2022-09-24T06:31:12.516Z,85.25
2022-09-24T06:33:40.599Z,86.25
2022-09-24T06:36:07.870Z,86.32
2022-09-24T06:38:35.450Z,86.09
2022-09-24T06:41:07.162Z,86.70
2022-09-24T06:43:35.252Z,86.96
2022-09-24T06:46:03.915Z,86.95
2022-09-24T06:48:33.824Z,86.61
2022-09-24T06:51:06.405Z,87.64
2022-09-24T06:53:33.702Z,87.94
2022-09-24T06:56:00.762Z,88.04
2022-09-24T06:58:27.734Z,87.60
2022-09-24T07:01:01.639Z,87.52
2022-09-24T07:03:32.070Z,88.07
2022-09-24T07:06:11.608Z,87.11
2022-09-24T07:08:38.697Z,87.58
2022-09-24T07:11:08.983Z,87.66
2022-09-24T07:13:35.872Z,86.99
2022-09-24T07:16:03.002Z,87.68
2022-09-24T07:18:34.615Z,87.99
2022-09-24T07:21:01.568Z,87.80
2022-09-24T07:23:30.922Z,88.75
2022-09-24T07:26:01.109Z,88.42
2022-09-24T07:28:28.056Z,88.19
2022-09-24T07:30:59.956Z,87.97
2022-09-24T07:33:27.549Z,88.85
2022-09-24T07:35:57.014Z,90.16
2022-09-24T07:38:24.635Z,89.86
2022-09-24T07:40:58.919Z,89.98
2022-09-24T07:43:26.931Z,89.56
2022-09-24T07:45:56.835Z,89.92
2022-09-24T07:48:24.359Z,89.14
2022-09-24T07:50:51.376Z,89.58
2022-09-24T07:53:18.333Z,91.08
2022-09-24T07:55:47.248Z,90.73
2022-09-24T07:58:15.055Z,91.87
2022-09-24T08:00:44.703Z,94.31
2022-09-24T08:03:11.711Z,93.05
2022-09-24T08:05:45.896Z,92.01
2022-09-24T08:08:15.258Z,92.01
2022-09-24T08:10:45.026Z,93.07
2022-09-24T08:13:14.991Z,92.27
2022-09-24T08:15:42.156Z,93.35
2022-09-24T08:18:09.729Z,92.19
2022-09-24T08:20:38.794Z,91.78
2022-09-24T08:23:10.528Z,91.92
2022-09-24T08:25:40.078Z,93.08
2022-09-24T08:28:08.686Z,92.55
2022-09-24T08:30:42.529Z,92.05
2022-09-24T08:33:10.503Z,92.53
2022-09-24T08:35:39.943Z,91.32
2022-09-24T08:38:10.629Z,92.53
2022-09-24T08:40:50.870Z,91.85
2022-09-24T08:43:45.256Z,91.32
2022-09-24T08:46:39.106Z,91.54
2022-09-24T08:49:16.278Z,93.15
2022-09-24T08:52:36.234Z,91.71
2022-09-24T08:55:14.325Z,91.31
2022-09-24T08:57:55.940Z,90.73
2022-09-24T09:00:23.713Z,89.82
2022-09-24T09:02:55.811Z,88.86
2022-09-24T09:06:14.976Z,89.80
2022-09-24T09:09:07.904Z,88.69
2022-09-24T09:11:39.449Z,87.82
2022-09-24T09:14:19.678Z,86.74
2022-09-24T09:16:54.232Z,86.81
2022-09-24T09:19:30.128Z,86.86
2022-09-24T09:22:14.330Z,88.74
2022-09-24T09:25:03.489Z,88.69
2022-09-24T09:27:33.974Z,88.60
2022-09-24T09:30:11.792Z,89.33
2022-09-24T09:33:07.625Z,89.88
2022-09-24T09:35:54.047Z,88.21
2022-09-24T09:38:40.779Z,89.29
2022-09-24T09:41:39.855Z,88.19
2022-09-24T09:44:23.529Z,88.46
2022-09-24T09:47:17.539Z,87.85
2022-09-24T09:49:47.594Z,87.92
2022-09-24T09:52:24.969Z,88.21
2022-09-24T09:54:52.223Z,87.55
2022-09-24T09:57:26.258Z,87.70
2022-09-24T09:59:55.310Z,88.02
2022-09-24T10:02:33.958Z,87.32
2022-09-24T10:05:06.683Z,86.92
2022-09-24T10:07:45.349Z,87.48
2022-09-24T10:10:25.099Z,87.31
2022-09-24T10:13:10.269Z,87.60
2022-09-24T10:16:03.807Z,88.48
2022-09-24T10:18:38.807Z,88.93
2022-09-24T10:21:12.051Z,89.53
2022-09-24T10:23:48.352Z,89.60
2022-09-24T10:26:18.963Z,88.67
2022-09-24T10:29:11.074Z,87.90
2022-09-24T10:31:40.447Z,88.72
2022-09-24T10:34:28.306Z,88.92
2022-09-24T10:37:16.365Z,88.35
2022-09-24T10:39:43.314Z,87.85
2022-09-24T10:42:25.637Z,86.83
2022-09-24T10:44:55.421Z,86.86
2022-09-24T10:47:50.657Z,85.32
2022-09-24T10:50:46.444Z,85.48
2022-09-24T10:53:41.540Z,86.01
2022-09-24T10:56:28.085Z,86.99
2022-09-24T10:59:25.021Z,86.89
2022-09-24T11:02:27.647Z,88.19
2022-09-24T11:05:06.532Z,87.13
2022-09-24T11:07:45.657Z,88.24
2022-09-24T11:10:51.333Z,86.92
2022-09-24T11:13:32.786Z,85.95
2022-09-24T11:16:18.183Z,86.17
2022-09-24T11:19:20.410Z,85.54
2022-09-24T11:22:24.817Z,84.65
2022-09-24T11:25:38.579Z,86.17
2022-09-24T11:28:30.032Z,85.49
2022-09-24T11:31:14.879Z,87.48
2022-09-24T11:34:11.158Z,86.98
2022-09-24T11:37:00.808Z,87.27
2022-09-24T11:40:08.718Z,88.01
2022-09-24T11:43:20.389Z,88.84
2022-09-24T11:46:06.238Z,86.81
2022-09-24T11:49:09.761Z,86.45
2022-09-24T11:52:22.408Z,87.77
2022-09-24T11:55:13.777Z,87.79
2022-09-24T11:58:14.051Z,87.54
2022-09-24T12:00:51.720Z,88.41
2022-09-24T12:04:08.201Z,89.01
2022-09-24T12:07:06.267Z,89.28
2022-09-24T12:10:07.764Z,89.48
2022-09-24T12:12:42.176Z,88.88
2022-09-24T12:15:22.319Z,88.19
2022-09-24T12:18:04.270Z,87.54
2022-09-24T12:20:33.558Z,86.85
2022-09-24T12:23:12.685Z,88.40
2022-09-24T12:25:47.609Z,89.18
2022-09-24T12:28:37.408Z,89.76
2022-09-24T12:31:38.750Z,89.79
2022-09-24T12:34:57.771Z,88.66
2022-09-24T12:37:33.121Z,87.97
2022-09-24T12:40:31.128Z,86.83
2022-09-24T12:43:03.590Z,88.05
2022-09-24T12:45:31.198Z,88.24
2022-09-24T12:48:01.140Z,87.53
2022-09-24T12:50:31.720Z,87.27
2022-09-24T12:53:01.170Z,88.01
2022-09-24T12:55:35.079Z,86.36
2022-09-24T12:58:40.860Z,87.46
2022-09-24T13:01:27.214Z,86.05
2022-09-24T13:04:15.135Z,85.70
2022-09-24T13:06:49.080Z,86.33
2022-09-24T13:09:38.378Z,85.95
2022-09-24T13:12:18.099Z,86.38
2022-09-24T13:15:04.315Z,86.18
2022-09-24T13:17:39.859Z,85.57
2022-09-24T13:20:19.165Z,85.55
2022-09-24T13:23:00.471Z,84.76
2022-09-24T13:25:29.999Z,83.95
2022-09-24T13:28:04.114Z,87.83
2022-09-24T13:30:40.940Z,86.43
2022-09-24T13:33:37.595Z,84.30
2022-09-24T13:36:19.305Z,84.78
2022-09-24T13:39:01.419Z,84.88
2022-09-24T13:42:04.634Z,84.16
2022-09-24T13:44:42.482Z,85.28
2022-09-24T13:47:51.157Z,86.42
2022-09-24T13:50:24.951Z,87.67
2022-09-24T13:53:17.206Z,88.08
2022-09-24T13:55:57.735Z,85.88
2022-09-24T13:58:35.703Z,87.25
2022-09-24T14:01:29.846Z,88.25
2022-09-24T14:04:22.187Z,86.21
2022-09-24T14:07:02.028Z,87.31
2022-09-24T14:09:28.894Z,86.13
2022-09-24T14:12:02.165Z,84.37
2022-09-24T14:14:34.940Z,84.45
2022-09-24T14:17:14.183Z,83.87
2022-09-24T14:19:42.309Z,84.53
2022-09-24T14:22:23.336Z,86.55
2022-09-24T14:25:07.268Z,86.41
2022-09-24T14:27:43.894Z,88.26
2022-09-24T14:30:23.962Z,88.20
2022-09-24T14:33:05.266Z,86.85
2022-09-24T14:35:37.574Z,87.70
2022-09-24T14:38:06.635Z,87.54
2022-09-24T14:40:50.151Z,88.49
2022-09-24T14:43:42.050Z,87.51
2022-09-24T14:46:34.429Z,88.89
2022-09-24T14:49:21.848Z,90.44
2022-09-24T14:52:16.099Z,89.55
2022-09-24T14:54:45.976Z,90.31
2022-09-24T14:57:25.349Z,88.96
2022-09-24T14:59:52.568Z,90.61
2022-09-24T15:02:37.240Z,89.67
2022-09-24T15:05:10.999Z,88.32
2022-09-24T15:07:38.114Z,88.87
2022-09-24T15:10:06.246Z,88.07
2022-09-24T15:12:37.949Z,87.96
2022-09-24T15:15:16.962Z,89.16
2022-09-24T15:17:47.502Z,87.95
2022-09-24T15:20:14.757Z,87.96
2022-09-24T15:22:41.799Z,87.91
2022-09-24T15:25:09.337Z,88.19
2022-09-24T15:27:42.738Z,90.73
2022-09-24T15:30:18.631Z,90.82
2022-09-24T15:32:45.817Z,88.91
2022-09-24T15:35:17.407Z,88.38
2022-09-24T15:37:45.371Z,89.46
2022-09-24T15:40:22.980Z,88.42
2022-09-24T15:42:51.059Z,88.79
2022-09-24T15:45:23.549Z,89.14
2022-09-24T15:47:54.334Z,88.81
2022-09-24T15:50:27.086Z,90.21
2022-09-24T15:52:57.061Z,90.69
2022-09-24T15:55:24.436Z,92.26
2022-09-24T15:57:51.575Z,92.56
2022-09-24T16:00:21.949Z,91.75
2022-09-24T16:02:57.617Z,92.99
2022-09-24T16:05:27.914Z,94.11
2022-09-24T16:07:54.797Z,93.10
2022-09-24T16:10:24.029Z,93.04
2022-09-24T16:12:58.401Z,93.92
2022-09-24T16:15:25.378Z,93.23
2022-09-24T16:17:57.161Z,92.55
2022-09-24T16:20:23.954Z,91.17
2022-09-24T16:22:50.929Z,90.90
2022-09-24T16:25:17.847Z,91.80
2022-09-24T16:27:44.728Z,90.32
2022-09-24T16:30:11.835Z,91.48
2022-09-24T16:32:41.796Z,91.85
2022-09-24T16:35:13.152Z,92.05
2022-09-24T16:37:41.139Z,91.85
2022-09-24T16:40:12.116Z,92.19
2022-09-24T16:42:39.136Z,91.70
2022-09-24T16:45:12.373Z,92.42
2022-09-24T16:47:41.870Z,92.20
2022-09-24T16:50:14.682Z,91.95
2022-09-24T16:52:44.977Z,91.97
2022-09-24T16:55:14.945Z,92.86
2022-09-24T16:57:44.323Z,93.47
2022-09-24T17:00:14.395Z,93.08
2022-09-24T17:02:45.960Z,93.77
2022-09-24T17:05:15.329Z,93.85
2022-09-24T17:07:42.263Z,92.76
2022-09-24T17:10:14.199Z,93.91
2022-09-24T17:12:48.740Z,94.20
2022-09-24T17:15:20.547Z,94.92
2022-09-24T17:17:50.852Z,94.46
2022-09-24T17:20:21.369Z,94.36
2022-09-24T17:22:49.033Z,93.13
2022-09-24T17:25:18.407Z,92.51
2022-09-24T17:27:47.976Z,93.21
2022-09-24T17:30:15.266Z,92.61
2022-09-24T17:32:42.123Z,92.61
2022-09-24T17:35:12.729Z,93.76
2022-09-24T17:37:39.672Z,93.22
2022-09-24T17:40:07.277Z,93.96
2022-09-24T17:42:34.696Z,93.83
2022-09-24T17:45:04.524Z,94.20
2022-09-24T17:47:51.464Z,95.05
2022-09-24T17:50:18.480Z,94.87
2022-09-24T17:52:45.391Z,95.08
2022-09-24T17:55:12.451Z,94.59
2022-09-24T17:57:39.433Z,94.31
2022-09-24T18:00:07.358Z,96.58
2022-09-24T18:02:36.523Z,95.89
2022-09-24T18:05:03.539Z,95.24
2022-09-24T18:07:32.648Z,94.86
2022-09-24T18:10:02.539Z,94.51
2022-09-24T18:12:29.382Z,95.25
2022-09-24T18:14:56.322Z,95.76
2022-09-24T18:17:23.136Z,96.92
2022-09-24T18:19:50.001Z,95.58
2022-09-24T18:22:18.921Z,97.07
2022-09-24T18:24:50.483Z,95.70
2022-09-24T18:27:17.409Z,96.29
2022-09-24T18:29:44.632Z,95.64
2022-09-24T18:32:15.901Z,95.34
2022-09-24T18:34:42.785Z,95.59
2022-09-24T18:37:10.287Z,95.75
2022-09-24T18:39:37.194Z,95.08
2022-09-24T18:42:06.308Z,95.17
2022-09-24T18:44:36.148Z,95.39
2022-09-24T18:47:03.107Z,94.59
2022-09-24T18:49:32.533Z,94.58
2022-09-24T18:52:01.888Z,94.71
2022-09-24T18:54:28.922Z,93.62
2022-09-24T18:56:55.736Z,94.62
2022-09-24T18:59:26.050Z,94.50
2022-09-24T19:01:55.999Z,94.41
2022-09-24T19:04:30.371Z,93.92
2022-09-24T19:07:03.275Z,93.67
2022-09-24T19:09:31.441Z,93.44
2022-09-24T19:12:05.883Z,93.30
2022-09-24T19:14:32.846Z,93.68
2022-09-24T19:16:59.704Z,93.09
2022-09-24T19:19:29.126Z,92.98
2022-09-24T19:22:00.771Z,92.35
2022-09-24T19:24:29.745Z,92.17
2022-09-24T19:27:01.178Z,91.81
2022-09-24T19:29:28.478Z,90.15
2022-09-24T19:31:56.281Z,90.62
2022-09-24T19:34:27.895Z,90.20
2022-09-24T19:36:54.958Z,89.47
2022-09-24T19:39:21.837Z,89.40
2022-09-24T19:41:52.858Z,90.25
2022-09-24T19:44:22.310Z,90.37
2022-09-24T19:46:51.843Z,90.56
2022-09-24T19:49:24.212Z,91.20
2022-09-24T19:51:53.156Z,90.62
2022-09-24T19:54:19.987Z,90.04
2022-09-24T19:56:46.989Z,90.74
2022-09-24T19:59:16.481Z,90.64
2022-09-24T20:01:44.705Z,90.33
2022-09-24T20:04:16.327Z,89.97
2022-09-24T20:06:43.246Z,90.38
2022-09-24T20:09:12.609Z,90.74
2022-09-24T20:11:39.408Z,90.05
2022-09-24T20:14:10.214Z,89.98
2022-09-24T20:16:42.727Z,89.56
2022-09-24T20:19:15.009Z,89.40
2022-09-24T20:21:42.206Z,89.36
2022-09-24T20:24:12.083Z,88.91
2022-09-24T20:26:59.842Z,88.91
2022-09-24T20:29:28.911Z,89.82
2022-09-24T20:31:56.543Z,89.57
2022-09-24T20:34:34.299Z,88.84
2022-09-24T20:37:06.937Z,88.95
2022-09-24T20:39:36.376Z,88.73
2022-09-24T20:42:05.782Z,88.50
2022-09-24T20:44:33.733Z,88.18
2022-09-24T20:47:03.024Z,87.39
2022-09-24T20:49:30.119Z,88.14
2022-09-24T20:51:57.974Z,88.04
2022-09-24T20:54:28.744Z,88.27
2022-09-24T20:56:56.539Z,88.87
2022-09-24T20:59:25.716Z,88.00
2022-09-24T21:01:57.771Z,87.88
2022-09-24T21:04:24.868Z,88.10
2022-09-24T21:06:51.832Z,88.21
2022-09-24T21:09:21.154Z,89.09
2022-09-24T21:11:50.222Z,88.95
2022-09-24T21:14:17.804Z,88.96
2022-09-24T21:16:45.479Z,88.40
2022-09-24T21:19:14.696Z,88.35
2022-09-24T21:21:44.374Z,89.24
2022-09-24T21:24:14.587Z,89.06
2022-09-24T21:26:45.240Z,88.70
2022-09-24T21:29:20.728Z,89.72
2022-09-24T21:31:48.605Z,90.27
2022-09-24T21:34:20.718Z,90.40
2022-09-24T21:36:48.193Z,90.18
2022-09-24T21:39:23.216Z,89.38
2022-09-24T21:41:53.025Z,89.23
2022-09-24T21:44:20.175Z,89.36
2022-09-24T21:46:52.263Z,89.76
2022-09-24T21:49:20.663Z,89.27
2022-09-24T21:51:47.744Z,88.67
2022-09-24T21:54:21.485Z,88.99
2022-09-24T21:56:48.661Z,88.09
2022-09-24T21:59:37.001Z,87.93
2022-09-24T22:02:12.502Z,87.31
2022-09-24T22:04:41.787Z,87.47
2022-09-24T22:07:11.254Z,86.58
2022-09-24T22:09:38.498Z,86.84
2022-09-24T22:12:05.483Z,86.38
2022-09-24T22:14:34.741Z,86.79
2022-09-24T22:17:05.879Z,86.74
2022-09-24T22:19:33.226Z,86.53
2022-09-24T22:22:03.080Z,86.87
2022-09-24T22:24:30.664Z,86.87
2022-09-24T22:27:01.117Z,87.22
2022-09-24T22:29:31.237Z,87.64
2022-09-24T22:31:58.344Z,87.45
2022-09-24T22:34:44.059Z,87.47
2022-09-24T22:37:12.319Z,87.87
2022-09-24T22:39:40.665Z,87.29
2022-09-24T22:42:07.876Z,86.95
2022-09-24T22:44:35.570Z,86.70
2022-09-24T22:47:02.704Z,86.75
2022-09-24T22:49:32.791Z,87.48
2022-09-24T22:52:00.436Z,87.22
2022-09-24T22:54:27.674Z,87.10
2022-09-24T22:56:56.619Z,86.87
2022-09-24T22:59:23.576Z,86.82
2022-09-24T23:01:51.347Z,86.85
2022-09-24T23:04:19.294Z,86.46
2022-09-24T23:06:49.018Z,86.63
2022-09-24T23:09:16.469Z,86.12
2022-09-24T23:11:44.942Z,86.05
2022-09-24T23:14:18.167Z,86.36
2022-09-24T23:16:46.897Z,86.15
2022-09-24T23:19:20.075Z,86.87
2022-09-24T23:21:49.899Z,86.47
2022-09-24T23:24:22.169Z,87.50
2022-09-24T23:26:55.951Z,88.11
2022-09-24T23:29:24.632Z,88.15
2022-09-24T23:31:54.086Z,88.16
2022-09-24T23:34:23.017Z,89.01
2022-09-24T23:36:50.020Z,88.45
2022-09-24T23:39:16.970Z,88.63
2022-09-24T23:41:46.375Z,88.72
2022-09-24T23:44:13.384Z,88.96
2022-09-24T23:46:40.472Z,88.52
2022-09-24T23:49:10.426Z,88.29
2022-09-24T23:51:42.414Z,87.76
2022-09-24T23:54:14.906Z,88.24
2022-09-24T23:56:41.793Z,87.55
2022-09-24T23:59:14.333Z,87.99
